sensor_id;sensor_type;location;lat;lon;timestamp;P1;durP1;ratioP1;P2;durP2;ratioP2
16308;SDS011;8263;48.880;9.276;2022-11-18T00:12:40;102.00;;;95.43;;
16308;SDS011;8263;48.880;9.276;2022-11-18T00:15:24;104.13;;;97.43;;
16308;SDS011;8263;48.880;9.276;2022-11-18T00:17:51;103.20;;;96.53;;
16308;SDS011;8263;48.880;9.276;2022-11-18T00:20:18;100.45;;;93.85;;
16308;SDS011;8263;48.880;9.276;2022-11-18T00:22:44;102.57;;;95.97;;
16308;SDS011;8263;48.880;9.276;2022-11-18T00:25:11;102.60;;;96.00;;
16308;SDS011;8263;48.880;9.276;2022-11-18T00:27:38;101.93;;;95.35;;
16308;SDS011;8263;48.880;9.276;2022-11-18T00:30:07;102.18;;;95.57;;
16308;SDS011;8263;48.880;9.276;2022-11-18T00:32:34;104.43;;;97.68;;
16308;SDS011;8263;48.880;9.276;2022-11-18T00:35:01;102.57;;;95.97;;
16308;SDS011;8263;48.880;9.276;2022-11-18T00:37:27;103.55;;;96.85;;
16308;SDS011;8263;48.880;9.276;2022-11-18T00:39:54;102.22;;;95.63;;
16308;SDS011;8263;48.880;9.276;2022-11-18T00:42:21;102.13;;;95.53;;
16308;SDS011;8263;48.880;9.276;2022-11-18T00:45:07;102.93;;;96.32;;
16308;SDS011;8263;48.880;9.276;2022-11-18T00:47:34;103.07;;;96.45;;
16308;SDS011;8263;48.880;9.276;2022-11-18T00:50:01;102.18;;;95.57;;
16308;SDS011;8263;48.880;9.276;2022-11-18T00:52:28;102.85;;;96.20;;
16308;SDS011;8263;48.880;9.276;2022-11-18T00:54:55;102.05;;;95.45;;
16308;SDS011;8263;48.880;9.276;2022-11-18T00:57:22;103.40;;;96.70;;
16308;SDS011;8263;48.880;9.276;2022-11-18T00:59:50;103.70;;;97.00;;
16308;SDS011;8263;48.880;9.276;2022-11-18T01:02:19;101.72;;;95.18;;
16308;SDS011;8263;48.880;9.276;2022-11-18T01:04:47;102.22;;;95.57;;
16308;SDS011;8263;48.880;9.276;2022-11-18T01:07:14;101.85;;;95.22;;
16308;SDS011;8263;48.880;9.276;2022-11-18T01:09:41;102.78;;;96.18;;
16308;SDS011;8263;48.880;9.276;2022-11-18T01:12:12;101.75;;;95.18;;
16308;SDS011;8263;48.880;9.276;2022-11-18T01:14:57;102.82;;;96.20;;
16308;SDS011;8263;48.880;9.276;2022-11-18T01:17:25;101.47;;;94.97;;
16308;SDS011;8263;48.880;9.276;2022-11-18T01:19:54;101.57;;;95.05;;
16308;SDS011;8263;48.880;9.276;2022-11-18T01:22:21;103.47;;;96.78;;
16308;SDS011;8263;48.880;9.276;2022-11-18T01:24:50;101.22;;;94.72;;
16308;SDS011;8263;48.880;9.276;2022-11-18T01:27:17;101.95;;;95.35;;
16308;SDS011;8263;48.880;9.276;2022-11-18T01:29:43;103.00;;;96.40;;
16308;SDS011;8263;48.880;9.276;2022-11-18T01:32:10;104.20;;;97.50;;
16308;SDS011;8263;48.880;9.276;2022-11-18T01:34:39;104.70;;;97.90;;
16308;SDS011;8263;48.880;9.276;2022-11-18T01:37:06;103.05;;;96.38;;
16308;SDS011;8263;48.880;9.276;2022-11-18T01:39:34;103.75;;;97.05;;
16308;SDS011;8263;48.880;9.276;2022-11-18T01:42:01;103.70;;;97.00;;
16308;SDS011;8263;48.880;9.276;2022-11-18T02:33:41;102.72;;;96.13;;
16308;SDS011;8263;48.880;9.276;2022-11-18T02:36:12;104.53;;;97.80;;
16308;SDS011;8263;48.880;9.276;2022-11-18T02:38:41;102.22;;;95.63;;
16308;SDS011;8263;48.880;9.276;2022-11-18T02:41:11;104.03;;;97.32;;
16308;SDS011;8263;48.880;9.276;2022-11-18T02:43:40;103.03;;;96.38;;
16308;SDS011;8263;48.880;9.276;2022-11-18T02:46:11;106.47;;;99.57;;
16308;SDS011;8263;48.880;9.276;2022-11-18T02:48:42;103.43;;;96.72;;
16308;SDS011;8263;48.880;9.276;2022-11-18T02:51:10;103.55;;;96.85;;
16308;SDS011;8263;48.880;9.276;2022-11-18T02:53:38;102.93;;;96.30;;
16308;SDS011;8263;48.880;9.276;2022-11-18T02:56:06;101.97;;;95.38;;
16308;SDS011;8263;48.880;9.276;2022-11-18T02:58:33;102.53;;;95.93;;
16308;SDS011;8263;48.880;9.276;2022-11-18T03:01:00;101.22;;;94.68;;
16308;SDS011;8263;48.880;9.276;2022-11-18T03:03:28;101.80;;;95.20;;
16308;SDS011;8263;48.880;9.276;2022-11-18T03:06:10;104.05;;;97.35;;
16308;SDS011;8263;48.880;9.276;2022-11-18T03:08:41;104.18;;;97.43;;
16308;SDS011;8263;48.880;9.276;2022-11-18T03:11:11;104.93;;;98.13;;
16308;SDS011;8263;48.880;9.276;2022-11-18T03:13:41;102.63;;;96.03;;
16308;SDS011;8263;48.880;9.276;2022-11-18T03:16:09;103.35;;;96.68;;
16308;SDS011;8263;48.880;9.276;2022-11-18T03:18:38;104.47;;;97.70;;
16308;SDS011;8263;48.880;9.276;2022-11-18T03:21:09;102.53;;;95.93;;
16308;SDS011;8263;48.880;9.276;2022-11-18T03:23:39;105.32;;;98.53;;
16308;SDS011;8263;48.880;9.276;2022-11-18T03:26:08;104.32;;;97.60;;
16308;SDS011;8263;48.880;9.276;2022-11-18T03:28:37;104.25;;;97.53;;
16308;SDS011;8263;48.880;9.276;2022-11-18T03:31:07;105.20;;;98.40;;
16308;SDS011;8263;48.880;9.276;2022-11-18T03:33:36;102.65;;;96.05;;
16308;SDS011;8263;48.880;9.276;2022-11-18T03:36:05;103.45;;;96.75;;
16308;SDS011;8263;48.880;9.276;2022-11-18T03:38:35;102.85;;;96.18;;
16308;SDS011;8263;48.880;9.276;2022-11-18T03:41:05;104.68;;;97.90;;
16308;SDS011;8263;48.880;9.276;2022-11-18T03:43:35;103.57;;;96.88;;
16308;SDS011;8263;48.880;9.276;2022-11-18T03:46:04;103.40;;;96.70;;
16308;SDS011;8263;48.880;9.276;2022-11-18T03:48:33;101.68;;;95.10;;
16308;SDS011;8263;48.880;9.276;2022-11-18T03:51:04;105.38;;;98.57;;
16308;SDS011;8263;48.880;9.276;2022-11-18T03:53:32;103.90;;;97.20;;
16308;SDS011;8263;48.880;9.276;2022-11-18T03:56:02;105.72;;;98.90;;
16308;SDS011;8263;48.880;9.276;2022-11-18T03:58:30;103.75;;;97.05;;
16308;SDS011;8263;48.880;9.276;2022-11-18T04:01:00;104.78;;;97.97;;
16308;SDS011;8263;48.880;9.276;2022-11-18T04:03:29;104.07;;;97.38;;
16308;SDS011;8263;48.880;9.276;2022-11-18T04:05:57;102.43;;;95.82;;
16308;SDS011;8263;48.880;9.276;2022-11-18T04:08:28;103.68;;;96.97;;
16308;SDS011;8263;48.880;9.276;2022-11-18T04:10:57;105.72;;;98.88;;
16308;SDS011;8263;48.880;9.276;2022-11-18T04:13:27;104.70;;;97.90;;
16308;SDS011;8263;48.880;9.276;2022-11-18T04:15:55;106.32;;;99.43;;
16308;SDS011;8263;48.880;9.276;2022-11-18T04:18:22;105.00;;;98.20;;
16308;SDS011;8263;48.880;9.276;2022-11-18T04:20:49;104.68;;;97.88;;
16308;SDS011;8263;48.880;9.276;2022-11-18T04:23:15;100.93;;;94.43;;
16308;SDS011;8263;48.880;9.276;2022-11-18T04:25:42;103.43;;;96.72;;
16308;SDS011;8263;48.880;9.276;2022-11-18T04:28:09;104.80;;;98.03;;
16308;SDS011;8263;48.880;9.276;2022-11-18T04:30:37;103.53;;;96.82;;
16308;SDS011;8263;48.880;9.276;2022-11-18T04:33:03;102.70;;;96.10;;
16308;SDS011;8263;48.880;9.276;2022-11-18T04:35:30;107.18;;;100.20;;
16308;SDS011;8263;48.880;9.276;2022-11-18T04:37:57;105.63;;;98.80;;
16308;SDS011;8263;48.880;9.276;2022-11-18T04:40:23;105.35;;;98.55;;
16308;SDS011;8263;48.880;9.276;2022-11-18T04:42:52;105.15;;;98.35;;
16308;SDS011;8263;48.880;9.276;2022-11-18T04:45:18;103.88;;;97.18;;
16308;SDS011;8263;48.880;9.276;2022-11-18T04:47:46;104.47;;;97.72;;
16308;SDS011;8263;48.880;9.276;2022-11-18T04:50:13;104.95;;;98.15;;
16308;SDS011;8263;48.880;9.276;2022-11-18T04:52:40;105.28;;;98.47;;
16308;SDS011;8263;48.880;9.276;2022-11-18T04:55:06;106.00;;;99.13;;
16308;SDS011;8263;48.880;9.276;2022-11-18T04:57:33;102.72;;;96.05;;
16308;SDS011;8263;48.880;9.276;2022-11-18T04:59:59;103.45;;;96.75;;
16308;SDS011;8263;48.880;9.276;2022-11-18T05:02:26;104.85;;;98.05;;
16308;SDS011;8263;48.880;9.276;2022-11-18T05:04:55;106.55;;;99.65;;
16308;SDS011;8263;48.880;9.276;2022-11-18T05:07:21;105.93;;;98.82;;
16308;SDS011;8263;48.880;9.276;2022-11-18T05:09:48;106.60;;;99.70;;
16308;SDS011;8263;48.880;9.276;2022-11-18T05:12:15;104.25;;;97.47;;
16308;SDS011;8263;48.880;9.276;2022-11-18T05:14:58;105.55;;;98.70;;
16308;SDS011;8263;48.880;9.276;2022-11-18T05:17:25;104.90;;;98.10;;
16308;SDS011;8263;48.880;9.276;2022-11-18T05:19:52;105.20;;;98.40;;
16308;SDS011;8263;48.880;9.276;2022-11-18T05:22:21;105.03;;;98.22;;
16308;SDS011;8263;48.880;9.276;2022-11-18T05:24:48;103.97;;;97.22;;
16308;SDS011;8263;48.880;9.276;2022-11-18T05:27:14;104.43;;;97.63;;
16308;SDS011;8263;48.880;9.276;2022-11-18T05:29:41;103.47;;;96.78;;
16308;SDS011;8263;48.880;9.276;2022-11-18T05:32:08;103.60;;;96.90;;
16308;SDS011;8263;48.880;9.276;2022-11-18T05:34:35;105.35;;;98.55;;
16308;SDS011;8263;48.880;9.276;2022-11-18T05:37:01;104.13;;;97.38;;
16308;SDS011;8263;48.880;9.276;2022-11-18T05:39:29;106.38;;;99.47;;
16308;SDS011;8263;48.880;9.276;2022-11-18T05:41:56;103.90;;;97.20;;
16308;SDS011;8263;48.880;9.276;2022-11-18T05:44:40;105.10;;;98.30;;
16308;SDS011;8263;48.880;9.276;2022-11-18T05:47:07;105.55;;;98.70;;
16308;SDS011;8263;48.880;9.276;2022-11-18T05:49:35;107.72;;;100.72;;
16308;SDS011;8263;48.880;9.276;2022-11-18T05:52:02;106.68;;;99.78;;
16308;SDS011;8263;48.880;9.276;2022-11-18T05:54:31;106.22;;;99.32;;
16308;SDS011;8263;48.880;9.276;2022-11-18T05:56:57;106.15;;;99.25;;
16308;SDS011;8263;48.880;9.276;2022-11-18T05:59:24;108.40;;;100.85;;
16308;SDS011;8263;48.880;9.276;2022-11-18T06:01:51;104.32;;;97.53;;
16308;SDS011;8263;48.880;9.276;2022-11-18T06:04:19;106.03;;;99.10;;
16308;SDS011;8263;48.880;9.276;2022-11-18T06:06:48;106.75;;;99.82;;
16308;SDS011;8263;48.880;9.276;2022-11-18T06:09:18;106.00;;;99.10;;
16308;SDS011;8263;48.880;9.276;2022-11-18T06:11:48;105.85;;;98.95;;
16308;SDS011;8263;48.880;9.276;2022-11-18T06:14:16;103.38;;;96.68;;
16308;SDS011;8263;48.880;9.276;2022-11-18T06:16:46;106.63;;;99.72;;
16308;SDS011;8263;48.880;9.276;2022-11-18T06:19:15;105.88;;;98.97;;
16308;SDS011;8263;48.880;9.276;2022-11-18T06:21:42;105.75;;;98.88;;
16308;SDS011;8263;48.880;9.276;2022-11-18T06:24:08;105.53;;;98.68;;
16308;SDS011;8263;48.880;9.276;2022-11-18T06:26:35;106.70;;;99.80;;
16308;SDS011;8263;48.880;9.276;2022-11-18T06:29:03;105.43;;;98.53;;
16308;SDS011;8263;48.880;9.276;2022-11-18T06:31:31;106.55;;;99.57;;
16308;SDS011;8263;48.880;9.276;2022-11-18T06:33:57;107.78;;;100.78;;
16308;SDS011;8263;48.880;9.276;2022-11-18T06:36:24;106.30;;;99.40;;
16308;SDS011;8263;48.880;9.276;2022-11-18T06:38:54;106.75;;;99.85;;
16308;SDS011;8263;48.880;9.276;2022-11-18T06:41:21;108.28;;;101.22;;
16308;SDS011;8263;48.880;9.276;2022-11-18T06:43:48;107.15;;;100.18;;
16308;SDS011;8263;48.880;9.276;2022-11-18T06:46:18;108.65;;;101.55;;
16308;SDS011;8263;48.880;9.276;2022-11-18T06:49:02;107.90;;;100.88;;
16308;SDS011;8263;48.880;9.276;2022-11-18T06:51:29;105.82;;;98.93;;
16308;SDS011;8263;48.880;9.276;2022-11-18T06:53:55;107.47;;;100.47;;
16308;SDS011;8263;48.880;9.276;2022-11-18T06:56:22;105.30;;;98.50;;
16308;SDS011;8263;48.880;9.276;2022-11-18T06:58:51;108.32;;;101.20;;
16308;SDS011;8263;48.880;9.276;2022-11-18T07:01:21;105.13;;;98.13;;
16308;SDS011;8263;48.880;9.276;2022-11-18T07:03:47;102.05;;;95.35;;
16308;SDS011;8263;48.880;9.276;2022-11-18T07:06:16;104.13;;;97.40;;
16308;SDS011;8263;48.880;9.276;2022-11-18T07:08:43;104.45;;;97.68;;
16308;SDS011;8263;48.880;9.276;2022-11-18T07:11:10;106.43;;;99.53;;
16308;SDS011;8263;48.880;9.276;2022-11-18T07:13:39;107.30;;;100.30;;
16308;SDS011;8263;48.880;9.276;2022-11-18T07:16:07;106.72;;;99.55;;
16308;SDS011;8263;48.880;9.276;2022-11-18T07:18:36;105.75;;;98.85;;
16308;SDS011;8263;48.880;9.276;2022-11-18T07:21:03;104.20;;;97.40;;
16308;SDS011;8263;48.880;9.276;2022-11-18T07:23:29;106.05;;;99.15;;
16308;SDS011;8263;48.880;9.276;2022-11-18T07:25:56;108.72;;;101.63;;
16308;SDS011;8263;48.880;9.276;2022-11-18T07:28:24;109.40;;;101.95;;
16308;SDS011;8263;48.880;9.276;2022-11-18T07:30:51;104.72;;;97.93;;
16308;SDS011;8263;48.880;9.276;2022-11-18T07:33:18;106.25;;;99.35;;
16308;SDS011;8263;48.880;9.276;2022-11-18T07:35:46;106.40;;;99.50;;
16308;SDS011;8263;48.880;9.276;2022-11-18T07:38:13;106.90;;;99.97;;
16308;SDS011;8263;48.880;9.276;2022-11-18T07:40:40;107.78;;;100.78;;
16308;SDS011;8263;48.880;9.276;2022-11-18T07:43:06;106.57;;;99.47;;
16308;SDS011;8263;48.880;9.276;2022-11-18T07:45:34;107.25;;;100.25;;
16308;SDS011;8263;48.880;9.276;2022-11-18T07:48:00;105.53;;;98.68;;
16308;SDS011;8263;48.880;9.276;2022-11-18T07:50:27;108.05;;;100.95;;
16308;SDS011;8263;48.880;9.276;2022-11-18T07:52:55;107.93;;;100.82;;
16308;SDS011;8263;48.880;9.276;2022-11-18T07:55:22;106.75;;;99.78;;
16308;SDS011;8263;48.880;9.276;2022-11-18T07:57:48;106.22;;;99.32;;
16308;SDS011;8263;48.880;9.276;2022-11-18T08:00:17;105.68;;;98.80;;
16308;SDS011;8263;48.880;9.276;2022-11-18T08:02:48;108.13;;;101.05;;
16308;SDS011;8263;48.880;9.276;2022-11-18T08:05:14;106.40;;;99.50;;
16308;SDS011;8263;48.880;9.276;2022-11-18T08:07:41;107.40;;;100.40;;
16308;SDS011;8263;48.880;9.276;2022-11-18T08:10:10;108.75;;;101.65;;
16308;SDS011;8263;48.880;9.276;2022-11-18T08:12:37;108.68;;;101.57;;
16308;SDS011;8263;48.880;9.276;2022-11-18T08:15:04;104.70;;;97.90;;
16308;SDS011;8263;48.880;9.276;2022-11-18T08:17:31;106.68;;;99.78;;
16308;SDS011;8263;48.880;9.276;2022-11-18T08:19:58;106.63;;;99.70;;
16308;SDS011;8263;48.880;9.276;2022-11-18T08:22:25;108.28;;;101.18;;
16308;SDS011;8263;48.880;9.276;2022-11-18T08:24:51;105.82;;;98.95;;
16308;SDS011;8263;48.880;9.276;2022-11-18T08:27:19;108.50;;;101.40;;
16308;SDS011;8263;48.880;9.276;2022-11-18T08:29:46;107.90;;;100.90;;
16308;SDS011;8263;48.880;9.276;2022-11-18T08:32:13;104.65;;;97.85;;
16308;SDS011;8263;48.880;9.276;2022-11-18T08:34:39;107.63;;;100.63;;
16308;SDS011;8263;48.880;9.276;2022-11-18T08:37:06;107.90;;;100.90;;
16308;SDS011;8263;48.880;9.276;2022-11-18T08:39:33;105.43;;;98.57;;
16308;SDS011;8263;48.880;9.276;2022-11-18T08:41:59;106.88;;;99.95;;
16308;SDS011;8263;48.880;9.276;2022-11-18T08:44:28;107.13;;;100.13;;
16308;SDS011;8263;48.880;9.276;2022-11-18T08:46:57;106.53;;;99.63;;
16308;SDS011;8263;48.880;9.276;2022-11-18T08:49:24;105.03;;;98.22;;
16308;SDS011;8263;48.880;9.276;2022-11-18T08:51:50;108.45;;;101.40;;
16308;SDS011;8263;48.880;9.276;2022-11-18T08:54:17;108.75;;;101.65;;
16308;SDS011;8263;48.880;9.276;2022-11-18T08:56:44;106.35;;;99.45;;
16308;SDS011;8263;48.880;9.276;2022-11-18T08:59:10;106.30;;;99.40;;
16308;SDS011;8263;48.880;9.276;2022-11-18T09:01:39;105.55;;;98.70;;
16308;SDS011;8263;48.880;9.276;2022-11-18T09:04:07;106.30;;;99.40;;
16308;SDS011;8263;48.880;9.276;2022-11-18T09:06:34;106.85;;;99.93;;
16308;SDS011;8263;48.880;9.276;2022-11-18T09:09:02;108.47;;;101.25;;
16308;SDS011;8263;48.880;9.276;2022-11-18T09:11:29;106.57;;;99.65;;
16308;SDS011;8263;48.880;9.276;2022-11-18T09:13:56;106.50;;;99.60;;
16308;SDS011;8263;48.880;9.276;2022-11-18T09:16:24;105.78;;;98.90;;
16308;SDS011;8263;48.880;9.276;2022-11-18T09:18:53;107.85;;;100.82;;
16308;SDS011;8263;48.880;9.276;2022-11-18T09:21:20;104.93;;;98.13;;
16308;SDS011;8263;48.880;9.276;2022-11-18T09:23:46;106.65;;;99.65;;
16308;SDS011;8263;48.880;9.276;2022-11-18T09:26:14;106.38;;;99.47;;
16308;SDS011;8263;48.880;9.276;2022-11-18T09:28:41;108.32;;;101.30;;
16308;SDS011;8263;48.880;9.276;2022-11-18T09:31:08;107.85;;;100.82;;
16308;SDS011;8263;48.880;9.276;2022-11-18T09:33:36;106.50;;;99.53;;
16308;SDS011;8263;48.880;9.276;2022-11-18T09:36:10;106.72;;;99.82;;
16308;SDS011;8263;48.880;9.276;2022-11-18T09:38:36;108.40;;;101.30;;
16308;SDS011;8263;48.880;9.276;2022-11-18T09:41:04;107.32;;;100.28;;
16308;SDS011;8263;48.880;9.276;2022-11-18T09:43:35;105.70;;;98.53;;
16308;SDS011;8263;48.880;9.276;2022-11-18T09:46:08;107.07;;;99.97;;
16308;SDS011;8263;48.880;9.276;2022-11-18T09:48:40;107.35;;;100.35;;
16308;SDS011;8263;48.880;9.276;2022-11-18T09:51:26;104.68;;;97.88;;
16308;SDS011;8263;48.880;9.276;2022-11-18T09:53:54;105.45;;;98.60;;
16308;SDS011;8263;48.880;9.276;2022-11-18T09:56:21;106.13;;;99.22;;
16308;SDS011;8263;48.880;9.276;2022-11-18T09:58:47;105.38;;;98.10;;
16308;SDS011;8263;48.880;9.276;2022-11-18T10:01:16;105.72;;;98.88;;
16308;SDS011;8263;48.880;9.276;2022-11-18T10:03:43;106.35;;;99.45;;
16308;SDS011;8263;48.880;9.276;2022-11-18T10:06:12;105.53;;;98.65;;
16308;SDS011;8263;48.880;9.276;2022-11-18T10:08:45;102.15;;;95.55;;
16308;SDS011;8263;48.880;9.276;2022-11-18T10:11:17;106.93;;;99.97;;
16308;SDS011;8263;48.880;9.276;2022-11-18T10:13:50;106.95;;;100.00;;
16308;SDS011;8263;48.880;9.276;2022-11-18T10:16:21;109.65;;;102.45;;
16308;SDS011;8263;48.880;9.276;2022-11-18T10:18:51;106.18;;;99.28;;
16308;SDS011;8263;48.880;9.276;2022-11-18T10:21:22;106.55;;;99.63;;
16308;SDS011;8263;48.880;9.276;2022-11-18T10:23:52;105.35;;;98.53;;
16308;SDS011;8263;48.880;9.276;2022-11-18T10:26:30;104.57;;;97.78;;
16308;SDS011;8263;48.880;9.276;2022-11-18T10:28:57;104.72;;;97.93;;
16308;SDS011;8263;48.880;9.276;2022-11-18T10:31:24;106.93;;;99.93;;
16308;SDS011;8263;48.880;9.276;2022-11-18T10:33:56;103.45;;;96.75;;
16308;SDS011;8263;48.880;9.276;2022-11-18T10:36:28;106.38;;;99.47;;
16308;SDS011;8263;48.880;9.276;2022-11-18T10:39:08;106.93;;;99.97;;
16308;SDS011;8263;48.880;9.276;2022-11-18T10:41:37;108.93;;;101.82;;
16308;SDS011;8263;48.880;9.276;2022-11-18T10:44:03;106.03;;;99.13;;
16308;SDS011;8263;48.880;9.276;2022-11-18T10:46:30;106.57;;;99.68;;
16308;SDS011;8263;48.880;9.276;2022-11-18T10:49:07;106.72;;;99.80;;
16308;SDS011;8263;48.880;9.276;2022-11-18T10:51:37;107.32;;;100.32;;
16308;SDS011;8263;48.880;9.276;2022-11-18T10:54:05;107.50;;;100.50;;
16308;SDS011;8263;48.880;9.276;2022-11-18T10:56:43;105.13;;;98.25;;
16308;SDS011;8263;48.880;9.276;2022-11-18T10:59:10;107.85;;;100.82;;
16308;SDS011;8263;48.880;9.276;2022-11-18T11:01:43;107.90;;;100.82;;
16308;SDS011;8263;48.880;9.276;2022-11-18T11:04:22;105.25;;;98.45;;
16308;SDS011;8263;48.880;9.276;2022-11-18T11:06:51;105.65;;;98.80;;
16308;SDS011;8263;48.880;9.276;2022-11-18T11:09:22;106.30;;;99.40;;
16308;SDS011;8263;48.880;9.276;2022-11-18T11:11:55;107.70;;;100.70;;
16308;SDS011;8263;48.880;9.276;2022-11-18T11:14:25;105.05;;;98.25;;
16308;SDS011;8263;48.880;9.276;2022-11-18T11:16:55;104.65;;;97.78;;
16308;SDS011;8263;48.880;9.276;2022-11-18T11:19:24;103.93;;;97.13;;
16308;SDS011;8263;48.880;9.276;2022-11-18T11:21:52;106.68;;;99.75;;
16308;SDS011;8263;48.880;9.276;2022-11-18T11:24:19;105.40;;;98.60;;
16308;SDS011;8263;48.880;9.276;2022-11-18T11:26:50;105.55;;;98.68;;
16308;SDS011;8263;48.880;9.276;2022-11-18T11:29:23;104.20;;;97.25;;
16308;SDS011;8263;48.880;9.276;2022-11-18T11:31:53;107.95;;;100.93;;
16308;SDS011;8263;48.880;9.276;2022-11-18T11:34:24;107.15;;;100.15;;
16308;SDS011;8263;48.880;9.276;2022-11-18T11:36:54;104.68;;;97.88;;
16308;SDS011;8263;48.880;9.276;2022-11-18T11:39:30;106.15;;;99.25;;
16308;SDS011;8263;48.880;9.276;2022-11-18T11:42:03;104.22;;;97.43;;
16308;SDS011;8263;48.880;9.276;2022-11-18T11:44:38;103.88;;;97.10;;
16308;SDS011;8263;48.880;9.276;2022-11-18T11:47:10;103.95;;;97.25;;
16308;SDS011;8263;48.880;9.276;2022-11-18T11:49:56;106.55;;;99.57;;
16308;SDS011;8263;48.880;9.276;2022-11-18T11:52:32;108.60;;;101.50;;
16308;SDS011;8263;48.880;9.276;2022-11-18T11:55:04;104.20;;;97.43;;
16308;SDS011;8263;48.880;9.276;2022-11-18T11:57:41;105.75;;;98.88;;
16308;SDS011;8263;48.880;9.276;2022-11-18T12:00:13;104.65;;;97.82;;
16308;SDS011;8263;48.880;9.276;2022-11-18T12:02:57;105.55;;;98.72;;
16308;SDS011;8263;48.880;9.276;2022-11-18T12:05:27;105.78;;;98.90;;
16308;SDS011;8263;48.880;9.276;2022-11-18T12:07:59;105.95;;;99.07;;
16308;SDS011;8263;48.880;9.276;2022-11-18T12:10:27;104.72;;;97.93;;
16308;SDS011;8263;48.880;9.276;2022-11-18T12:12:58;103.78;;;96.97;;
16308;SDS011;8263;48.880;9.276;2022-11-18T12:15:37;104.10;;;97.32;;
16308;SDS011;8263;48.880;9.276;2022-11-18T12:18:09;104.93;;;98.13;;
16308;SDS011;8263;48.880;9.276;2022-11-18T12:20:39;103.57;;;96.88;;
16308;SDS011;8263;48.880;9.276;2022-11-18T12:25:53;103.90;;;97.13;;
16308;SDS011;8263;48.880;9.276;2022-11-18T12:28:28;104.53;;;97.72;;
16308;SDS011;8263;48.880;9.276;2022-11-18T12:33:42;106.40;;;99.50;;
16308;SDS011;8263;48.880;9.276;2022-11-18T12:36:09;105.72;;;98.90;;
16308;SDS011;8263;48.880;9.276;2022-11-18T12:38:35;106.40;;;99.50;;
16308;SDS011;8263;48.880;9.276;2022-11-18T12:41:02;104.65;;;97.85;;
16308;SDS011;8263;48.880;9.276;2022-11-18T12:54:51;104.05;;;97.25;;
16308;SDS011;8263;48.880;9.276;2022-11-18T12:57:19;102.88;;;96.20;;
16308;SDS011;8263;48.880;9.276;2022-11-18T12:59:47;102.30;;;95.70;;
16308;SDS011;8263;48.880;9.276;2022-11-18T13:02:18;103.95;;;97.22;;
16308;SDS011;8263;48.880;9.276;2022-11-18T13:07:27;104.97;;;98.07;;
16308;SDS011;8263;48.880;9.276;2022-11-18T13:10:18;101.55;;;94.95;;
16308;SDS011;8263;48.880;9.276;2022-11-18T13:12:46;103.30;;;96.63;;
16308;SDS011;8263;48.880;9.276;2022-11-18T13:15:13;104.30;;;97.53;;
16308;SDS011;8263;48.880;9.276;2022-11-18T13:18:04;103.72;;;96.93;;
16308;SDS011;8263;48.880;9.276;2022-11-18T13:20:32;103.03;;;96.35;;
16308;SDS011;8263;48.880;9.276;2022-11-18T13:23:00;104.88;;;98.07;;
16308;SDS011;8263;48.880;9.276;2022-11-18T13:25:46;102.13;;;95.50;;
16308;SDS011;8263;48.880;9.276;2022-11-18T13:28:17;100.78;;;94.28;;
16308;SDS011;8263;48.880;9.276;2022-11-18T13:30:48;103.65;;;96.95;;
16308;SDS011;8263;48.880;9.276;2022-11-18T13:33:15;101.90;;;95.32;;
16308;SDS011;8263;48.880;9.276;2022-11-18T13:35:42;102.57;;;95.95;;
16308;SDS011;8263;48.880;9.276;2022-11-18T13:38:17;102.45;;;95.85;;
16308;SDS011;8263;48.880;9.276;2022-11-18T13:40:45;104.13;;;97.28;;
16308;SDS011;8263;48.880;9.276;2022-11-18T13:43:28;103.50;;;96.80;;
16308;SDS011;8263;48.880;9.276;2022-11-18T13:45:54;102.00;;;95.40;;
16308;SDS011;8263;48.880;9.276;2022-11-18T13:48:21;102.75;;;95.93;;
16308;SDS011;8263;48.880;9.276;2022-11-18T13:50:49;101.25;;;94.75;;
16308;SDS011;8263;48.880;9.276;2022-11-18T13:53:23;102.82;;;96.13;;
16308;SDS011;8263;48.880;9.276;2022-11-18T13:55:55;102.50;;;95.90;;
16308;SDS011;8263;48.880;9.276;2022-11-18T13:58:30;105.68;;;98.18;;
16308;SDS011;8263;48.880;9.276;2022-11-18T14:00:57;103.30;;;96.60;;
16308;SDS011;8263;48.880;9.276;2022-11-18T14:03:25;102.07;;;95.47;;
16308;SDS011;8263;48.880;9.276;2022-11-18T14:05:53;105.68;;;98.78;;
16308;SDS011;8263;48.880;9.276;2022-11-18T14:08:22;105.72;;;98.90;;
16308;SDS011;8263;48.880;9.276;2022-11-18T14:10:50;103.85;;;97.13;;
16308;SDS011;8263;48.880;9.276;2022-11-18T14:13:21;105.70;;;98.85;;
16308;SDS011;8263;48.880;9.276;2022-11-18T14:15:48;102.97;;;96.35;;
16308;SDS011;8263;48.880;9.276;2022-11-18T14:18:17;104.82;;;98.03;;
16308;SDS011;8263;48.880;9.276;2022-11-18T14:20:48;102.20;;;95.60;;
16308;SDS011;8263;48.880;9.276;2022-11-18T14:23:15;101.40;;;94.88;;
16308;SDS011;8263;48.880;9.276;2022-11-18T14:25:43;105.07;;;98.30;;
16308;SDS011;8263;48.880;9.276;2022-11-18T14:28:11;101.40;;;94.88;;
16308;SDS011;8263;48.880;9.276;2022-11-18T14:30:39;102.28;;;95.38;;
16308;SDS011;8263;48.880;9.276;2022-11-18T14:33:11;101.90;;;95.32;;
16308;SDS011;8263;48.880;9.276;2022-11-18T14:35:38;101.53;;;95.00;;
16308;SDS011;8263;48.880;9.276;2022-11-18T14:38:12;104.15;;;97.43;;
16308;SDS011;8263;48.880;9.276;2022-11-18T14:40:39;102.88;;;96.20;;
16308;SDS011;8263;48.880;9.276;2022-11-18T14:43:08;104.13;;;97.38;;
16308;SDS011;8263;48.880;9.276;2022-11-18T14:45:35;104.18;;;97.43;;
16308;SDS011;8263;48.880;9.276;2022-11-18T14:48:04;102.00;;;95.40;;
16308;SDS011;8263;48.880;9.276;2022-11-18T14:50:31;103.57;;;96.88;;
16308;SDS011;8263;48.880;9.276;2022-11-18T14:52:58;102.30;;;95.60;;
16308;SDS011;8263;48.880;9.276;2022-11-18T14:55:24;102.93;;;96.22;;
16308;SDS011;8263;48.880;9.276;2022-11-18T14:57:51;104.82;;;98.03;;
16308;SDS011;8263;48.880;9.276;2022-11-18T15:00:18;101.20;;;94.70;;
16308;SDS011;8263;48.880;9.276;2022-11-18T15:02:45;101.82;;;95.22;;
16308;SDS011;8263;48.880;9.276;2022-11-18T15:05:13;101.05;;;94.55;;
16308;SDS011;8263;48.880;9.276;2022-11-18T15:07:40;103.30;;;96.53;;
16308;SDS011;8263;48.880;9.276;2022-11-18T15:10:08;103.45;;;96.65;;
16308;SDS011;8263;48.880;9.276;2022-11-18T15:12:36;102.75;;;96.05;;
16308;SDS011;8263;48.880;9.276;2022-11-18T15:15:02;102.45;;;95.85;;
16308;SDS011;8263;48.880;9.276;2022-11-18T15:17:29;100.50;;;94.00;;
16308;SDS011;8263;48.880;9.276;2022-11-18T15:19:56;101.13;;;94.60;;
16308;SDS011;8263;48.880;9.276;2022-11-18T15:22:25;102.68;;;96.07;;
16308;SDS011;8263;48.880;9.276;2022-11-18T15:24:51;101.45;;;94.93;;
16308;SDS011;8263;48.880;9.276;2022-11-18T15:27:17;104.10;;;97.10;;
16308;SDS011;8263;48.880;9.276;2022-11-18T15:29:46;105.25;;;98.03;;
16308;SDS011;8263;48.880;9.276;2022-11-18T15:32:14;108.82;;;100.68;;
16308;SDS011;8263;48.880;9.276;2022-11-18T15:34:41;104.55;;;97.65;;
16308;SDS011;8263;48.880;9.276;2022-11-18T15:37:09;102.45;;;95.75;;
16308;SDS011;8263;48.880;9.276;2022-11-18T15:39:38;105.22;;;98.30;;
16308;SDS011;8263;48.880;9.276;2022-11-18T15:42:05;102.70;;;95.95;;
16308;SDS011;8263;48.880;9.276;2022-11-18T15:44:32;103.50;;;96.63;;
16308;SDS011;8263;48.880;9.276;2022-11-18T15:46:59;104.20;;;97.43;;
16308;SDS011;8263;48.880;9.276;2022-11-18T15:49:25;105.78;;;98.85;;
16308;SDS011;8263;48.880;9.276;2022-11-18T15:51:52;104.90;;;98.10;;